sensor_id;sensor_type;location;lat;lon;timestamp;temperature;humidity
51615;DHT22;37695;52.960;6.188;2023-04-25T00:01:37;7.00;99.90
51615;DHT22;37695;52.960;6.188;2023-04-25T00:04:03;6.90;99.90
51615;DHT22;37695;52.960;6.188;2023-04-25T00:06:31;6.80;99.90
51615;DHT22;37695;52.960;6.188;2023-04-25T00:08:57;6.80;99.90
51615;DHT22;37695;52.960;6.188;2023-04-25T00:11:23;6.80;99.90
51615;DHT22;37695;52.960;6.188;2023-04-25T00:13:49;6.80;99.90
51615;DHT22;37695;52.960;6.188;2023-04-25T00:16:16;6.80;99.90
51615;DHT22;37695;52.960;6.188;2023-04-25T00:18:42;6.80;99.90
51615;DHT22;37695;52.960;6.188;2023-04-25T00:21:08;6.80;99.90
51615;DHT22;37695;52.960;6.188;2023-04-25T00:23:34;6.80;99.90
51615;DHT22;37695;52.960;6.188;2023-04-25T00:26:02;6.80;99.90
51615;DHT22;37695;52.960;6.188;2023-04-25T00:28:28;6.80;99.90
51615;DHT22;37695;52.960;6.188;2023-04-25T00:30:53;6.70;99.90
51615;DHT22;37695;52.960;6.188;2023-04-25T00:33:19;6.70;99.90
51615;DHT22;37695;52.960;6.188;2023-04-25T00:35:44;6.60;99.90
51615;DHT22;37695;52.960;6.188;2023-04-25T00:38:10;6.60;99.90
51615;DHT22;37695;52.960;6.188;2023-04-25T00:40:35;6.50;99.90
51615;DHT22;37695;52.960;6.188;2023-04-25T00:43:01;6.50;99.90
51615;DHT22;37695;52.960;6.188;2023-04-25T00:45:30;6.40;99.90
51615;DHT22;37695;52.960;6.188;2023-04-25T00:47:56;6.30;99.90
51615;DHT22;37695;52.960;6.188;2023-04-25T00:50:22;6.30;99.90
51615;DHT22;37695;52.960;6.188;2023-04-25T00:52:48;6.30;99.90
51615;DHT22;37695;52.960;6.188;2023-04-25T00:55:14;6.30;99.90
51615;DHT22;37695;52.960;6.188;2023-04-25T00:57:42;6.30;99.90
51615;DHT22;37695;52.960;6.188;2023-04-25T01:00:08;6.30;99.90
51615;DHT22;37695;52.960;6.188;2023-04-25T01:02:35;6.30;99.90
51615;DHT22;37695;52.960;6.188;2023-04-25T01:05:01;6.30;99.90
51615;DHT22;37695;52.960;6.188;2023-04-25T01:07:27;6.30;99.90
51615;DHT22;37695;52.960;6.188;2023-04-25T01:09:53;6.30;99.90
51615;DHT22;37695;52.960;6.188;2023-04-25T01:12:18;6.30;99.90
51615;DHT22;37695;52.960;6.188;2023-04-25T01:14:44;6.20;99.90
51615;DHT22;37695;52.960;6.188;2023-04-25T01:17:10;6.20;99.90
51615;DHT22;37695;52.960;6.188;2023-04-25T01:19:36;6.20;99.90
51615;DHT22;37695;52.960;6.188;2023-04-25T01:22:02;6.20;99.90
51615;DHT22;37695;52.960;6.188;2023-04-25T01:24:29;6.20;99.90
51615;DHT22;37695;52.960;6.188;2023-04-25T01:26:55;6.10;99.90
51615;DHT22;37695;52.960;6.188;2023-04-25T01:29:22;6.10;99.90
51615;DHT22;37695;52.960;6.188;2023-04-25T01:31:49;6.10;99.90
51615;DHT22;37695;52.960;6.188;2023-04-25T01:34:15;6.10;99.90
51615;DHT22;37695;52.960;6.188;2023-04-25T01:36:40;6.20;99.90
51615;DHT22;37695;52.960;6.188;2023-04-25T01:39:06;6.20;99.90
51615;DHT22;37695;52.960;6.188;2023-04-25T01:41:32;6.20;99.90
51615;DHT22;37695;52.960;6.188;2023-04-25T01:44:00;6.20;99.90
51615;DHT22;37695;52.960;6.188;2023-04-25T01:46:25;6.20;99.90
51615;DHT22;37695;52.960;6.188;2023-04-25T01:48:51;6.20;99.90
51615;DHT22;37695;52.960;6.188;2023-04-25T01:51:17;6.20;99.90
51615;DHT22;37695;52.960;6.188;2023-04-25T01:53:43;6.20;99.90
51615;DHT22;37695;52.960;6.188;2023-04-25T01:56:08;6.20;99.90
51615;DHT22;37695;52.960;6.188;2023-04-25T01:58:34;6.30;99.90
51615;DHT22;37695;52.960;6.188;2023-04-25T02:01:00;6.30;99.90
51615;DHT22;37695;52.960;6.188;2023-04-25T02:03:25;6.20;99.90
51615;DHT22;37695;52.960;6.188;2023-04-25T02:05:51;6.20;99.90
51615;DHT22;37695;52.960;6.188;2023-04-25T02:08:17;6.20;99.90
51615;DHT22;37695;52.960;6.188;2023-04-25T02:10:43;6.20;99.90
51615;DHT22;37695;52.960;6.188;2023-04-25T02:13:09;6.10;99.90
51615;DHT22;37695;52.960;6.188;2023-04-25T02:15:35;6.10;99.90
51615;DHT22;37695;52.960;6.188;2023-04-25T02:18:00;6.00;99.90
51615;DHT22;37695;52.960;6.188;2023-04-25T02:20:28;6.00;99.90
51615;DHT22;37695;52.960;6.188;2023-04-25T02:22:53;6.00;99.90
51615;DHT22;37695;52.960;6.188;2023-04-25T02:25:20;5.90;99.90
51615;DHT22;37695;52.960;6.188;2023-04-25T02:27:46;6.30;99.90
51615;DHT22;37695;52.960;6.188;2023-04-25T02:30:12;5.90;99.90
51615;DHT22;37695;52.960;6.188;2023-04-25T02:32:38;5.90;99.90
51615;DHT22;37695;52.960;6.188;2023-04-25T02:35:04;5.80;99.90
51615;DHT22;37695;52.960;6.188;2023-04-25T02:37:35;5.80;99.90
51615;DHT22;37695;52.960;6.188;2023-04-25T02:40:01;5.80;99.90
51615;DHT22;37695;52.960;6.188;2023-04-25T02:42:28;5.80;99.90
51615;DHT22;37695;52.960;6.188;2023-04-25T02:44:53;5.70;99.90
51615;DHT22;37695;52.960;6.188;2023-04-25T02:47:19;5.70;99.90
51615;DHT22;37695;52.960;6.188;2023-04-25T02:49:45;5.80;99.90
51615;DHT22;37695;52.960;6.188;2023-04-25T02:52:11;5.70;99.90
51615;DHT22;37695;52.960;6.188;2023-04-25T02:54:38;5.70;99.90
51615;DHT22;37695;52.960;6.188;2023-04-25T02:57:03;5.70;99.90
51615;DHT22;37695;52.960;6.188;2023-04-25T02:59:29;5.70;99.90
51615;DHT22;37695;52.960;6.188;2023-04-25T03:01:55;5.70;99.90
51615;DHT22;37695;52.960;6.188;2023-04-25T03:04:20;5.70;99.90
51615;DHT22;37695;52.960;6.188;2023-04-25T03:06:49;5.70;99.90
51615;DHT22;37695;52.960;6.188;2023-04-25T03:09:15;5.70;99.90
51615;DHT22;37695;52.960;6.188;2023-04-25T03:11:40;5.70;99.90
51615;DHT22;37695;52.960;6.188;2023-04-25T03:14:06;5.70;99.90
51615;DHT22;37695;52.960;6.188;2023-04-25T03:16:31;5.70;99.90
51615;DHT22;37695;52.960;6.188;2023-04-25T03:18:57;5.70;99.90
51615;DHT22;37695;52.960;6.188;2023-04-25T03:21:23;5.60;99.90
51615;DHT22;37695;52.960;6.188;2023-04-25T03:23:48;5.60;99.90
51615;DHT22;37695;52.960;6.188;2023-04-25T03:26:14;5.50;99.90
51615;DHT22;37695;52.960;6.188;2023-04-25T03:28:39;5.40;99.90
51615;DHT22;37695;52.960;6.188;2023-04-25T03:31:05;5.40;99.90
51615;DHT22;37695;52.960;6.188;2023-04-25T03:33:31;5.40;99.90
51615;DHT22;37695;52.960;6.188;2023-04-25T03:35:56;5.40;99.90
51615;DHT22;37695;52.960;6.188;2023-04-25T03:38:22;5.40;99.90
51615;DHT22;37695;52.960;6.188;2023-04-25T03:40:49;5.40;99.90
51615;DHT22;37695;52.960;6.188;2023-04-25T03:43:16;6.60;99.90
51615;DHT22;37695;52.960;6.188;2023-04-25T03:45:42;5.30;99.90
51615;DHT22;37695;52.960;6.188;2023-04-25T03:48:07;5.30;99.90
51615;DHT22;37695;52.960;6.188;2023-04-25T03:50:33;5.30;99.90
51615;DHT22;37695;52.960;6.188;2023-04-25T03:52:58;5.30;99.90
51615;DHT22;37695;52.960;6.188;2023-04-25T03:55:24;5.30;99.90
51615;DHT22;37695;52.960;6.188;2023-04-25T03:57:49;5.30;99.90
51615;DHT22;37695;52.960;6.188;2023-04-25T04:00:15;5.30;99.90
51615;DHT22;37695;52.960;6.188;2023-04-25T04:02:41;5.30;99.90
51615;DHT22;37695;52.960;6.188;2023-04-25T04:05:06;5.40;99.90
51615;DHT22;37695;52.960;6.188;2023-04-25T04:07:32;5.40;99.90
51615;DHT22;37695;52.960;6.188;2023-04-25T04:09:59;5.40;99.90
51615;DHT22;37695;52.960;6.188;2023-04-25T04:12:24;5.40;99.90
51615;DHT22;37695;52.960;6.188;2023-04-25T04:14:50;5.40;99.90
51615;DHT22;37695;52.960;6.188;2023-04-25T04:17:15;5.40;99.90
51615;DHT22;37695;52.960;6.188;2023-04-25T04:19:41;5.40;99.90
51615;DHT22;37695;52.960;6.188;2023-04-25T04:22:07;5.50;99.90
51615;DHT22;37695;52.960;6.188;2023-04-25T04:24:32;5.50;99.90
51615;DHT22;37695;52.960;6.188;2023-04-25T04:26:58;5.50;99.90
51615;DHT22;37695;52.960;6.188;2023-04-25T04:29:24;5.50;99.90
51615;DHT22;37695;52.960;6.188;2023-04-25T04:31:50;5.50;99.90
51615;DHT22;37695;52.960;6.188;2023-04-25T04:34:17;5.50;99.90
51615;DHT22;37695;52.960;6.188;2023-04-25T04:36:44;5.50;99.90
51615;DHT22;37695;52.960;6.188;2023-04-25T04:39:12;5.50;99.90
51615;DHT22;37695;52.960;6.188;2023-04-25T04:41:37;5.50;99.90
51615;DHT22;37695;52.960;6.188;2023-04-25T04:44:04;5.50;99.90
51615;DHT22;37695;52.960;6.188;2023-04-25T04:46:29;5.50;99.90
51615;DHT22;37695;52.960;6.188;2023-04-25T04:48:56;5.50;99.90
51615;DHT22;37695;52.960;6.188;2023-04-25T04:51:22;5.50;99.90
51615;DHT22;37695;52.960;6.188;2023-04-25T04:53:48;5.50;99.90
51615;DHT22;37695;52.960;6.188;2023-04-25T04:56:13;5.50;99.90
51615;DHT22;37695;52.960;6.188;2023-04-25T04:58:39;5.50;99.90
51615;DHT22;37695;52.960;6.188;2023-04-25T05:01:05;5.40;99.90
51615;DHT22;37695;52.960;6.188;2023-04-25T05:03:30;5.40;99.90
51615;DHT22;37695;52.960;6.188;2023-04-25T05:05:56;5.50;99.90
51615;DHT22;37695;52.960;6.188;2023-04-25T05:08:21;5.50;99.90
51615;DHT22;37695;52.960;6.188;2023-04-25T05:10:47;5.50;99.90
51615;DHT22;37695;52.960;6.188;2023-04-25T05:13:12;5.60;99.90
51615;DHT22;37695;52.960;6.188;2023-04-25T05:15:38;5.60;99.90
51615;DHT22;37695;52.960;6.188;2023-04-25T05:18:03;5.70;99.90
51615;DHT22;37695;52.960;6.188;2023-04-25T05:20:29;5.70;99.90
51615;DHT22;37695;52.960;6.188;2023-04-25T05:22:54;5.80;99.90
51615;DHT22;37695;52.960;6.188;2023-04-25T05:25:20;5.70;99.90
51615;DHT22;37695;52.960;6.188;2023-04-25T05:27:46;5.70;99.90
51615;DHT22;37695;52.960;6.188;2023-04-25T05:30:11;5.70;99.90
51615;DHT22;37695;52.960;6.188;2023-04-25T05:32:37;5.80;99.90
51615;DHT22;37695;52.960;6.188;2023-04-25T05:35:03;5.80;99.90
51615;DHT22;37695;52.960;6.188;2023-04-25T05:37:28;5.80;99.90
51615;DHT22;37695;52.960;6.188;2023-04-25T05:39:56;5.80;99.90
51615;DHT22;37695;52.960;6.188;2023-04-25T05:42:21;5.80;99.90
51615;DHT22;37695;52.960;6.188;2023-04-25T05:44:47;5.90;99.90
51615;DHT22;37695;52.960;6.188;2023-04-25T05:47:13;5.90;99.90
51615;DHT22;37695;52.960;6.188;2023-04-25T05:49:38;6.00;99.90
51615;DHT22;37695;52.960;6.188;2023-04-25T05:52:04;6.00;99.90
51615;DHT22;37695;52.960;6.188;2023-04-25T05:54:29;6.00;99.90
51615;DHT22;37695;52.960;6.188;2023-04-25T05:56:56;6.00;99.90
51615;DHT22;37695;52.960;6.188;2023-04-25T05:59:22;6.00;99.90
51615;DHT22;37695;52.960;6.188;2023-04-25T06:01:48;6.00;99.90
51615;DHT22;37695;52.960;6.188;2023-04-25T06:04:13;5.90;99.90
51615;DHT22;37695;52.960;6.188;2023-04-25T06:06:39;5.90;99.90
51615;DHT22;37695;52.960;6.188;2023-04-25T06:09:04;5.90;99.90
51615;DHT22;37695;52.960;6.188;2023-04-25T06:11:30;5.90;99.90
51615;DHT22;37695;52.960;6.188;2023-04-25T06:13:55;6.00;99.90
51615;DHT22;37695;52.960;6.188;2023-04-25T06:16:21;6.00;99.90
51615;DHT22;37695;52.960;6.188;2023-04-25T06:18:46;6.10;99.90
51615;DHT22;37695;52.960;6.188;2023-04-25T06:21:12;6.30;99.90
51615;DHT22;37695;52.960;6.188;2023-04-25T06:23:37;6.50;99.90
51615;DHT22;37695;52.960;6.188;2023-04-25T06:26:03;6.70;99.90
51615;DHT22;37695;52.960;6.188;2023-04-25T06:28:29;6.90;99.90
51615;DHT22;37695;52.960;6.188;2023-04-25T06:30:54;7.00;99.90
51615;DHT22;37695;52.960;6.188;2023-04-25T06:33:20;7.00;99.90
51615;DHT22;37695;52.960;6.188;2023-04-25T06:35:46;6.90;99.90
51615;DHT22;37695;52.960;6.188;2023-04-25T06:38:12;6.60;99.90
51615;DHT22;37695;52.960;6.188;2023-04-25T06:40:38;6.40;99.90
51615;DHT22;37695;52.960;6.188;2023-04-25T06:43:04;6.30;99.90
51615;DHT22;37695;52.960;6.188;2023-04-25T06:45:30;6.20;99.90
51615;DHT22;37695;52.960;6.188;2023-04-25T06:47:55;6.20;99.90
51615;DHT22;37695;52.960;6.188;2023-04-25T06:50:21;6.20;99.90
51615;DHT22;37695;52.960;6.188;2023-04-25T06:52:47;6.20;99.90
51615;DHT22;37695;52.960;6.188;2023-04-25T06:55:12;6.20;99.90
51615;DHT22;37695;52.960;6.188;2023-04-25T06:57:38;6.20;99.90
51615;DHT22;37695;52.960;6.188;2023-04-25T07:00:04;6.20;99.90
51615;DHT22;37695;52.960;6.188;2023-04-25T07:02:33;6.20;99.90
51615;DHT22;37695;52.960;6.188;2023-04-25T07:04:59;6.20;99.90
51615;DHT22;37695;52.960;6.188;2023-04-25T07:07:25;6.30;99.90
51615;DHT22;37695;52.960;6.188;2023-04-25T07:09:51;6.60;99.90
51615;DHT22;37695;52.960;6.188;2023-04-25T07:12:16;6.70;99.90
51615;DHT22;37695;52.960;6.188;2023-04-25T07:14:42;6.80;99.90
51615;DHT22;37695;52.960;6.188;2023-04-25T07:17:07;6.90;99.90
51615;DHT22;37695;52.960;6.188;2023-04-25T07:19:33;7.00;99.90
51615;DHT22;37695;52.960;6.188;2023-04-25T07:21:59;7.10;99.90
51615;DHT22;37695;52.960;6.188;2023-04-25T07:24:24;7.30;99.90
51615;DHT22;37695;52.960;6.188;2023-04-25T07:26:50;7.40;99.90
51615;DHT22;37695;52.960;6.188;2023-04-25T07:29:15;7.50;99.90
51615;DHT22;37695;52.960;6.188;2023-04-25T07:31:41;7.60;99.90
51615;DHT22;37695;52.960;6.188;2023-04-25T07:34:07;7.60;99.90
51615;DHT22;37695;52.960;6.188;2023-04-25T07:36:32;7.60;99.90
51615;DHT22;37695;52.960;6.188;2023-04-25T07:38:58;7.70;99.90
51615;DHT22;37695;52.960;6.188;2023-04-25T07:41:23;7.70;99.90
51615;DHT22;37695;52.960;6.188;2023-04-25T07:43:49;7.70;99.90
51615;DHT22;37695;52.960;6.188;2023-04-25T07:46:15;7.50;99.90
51615;DHT22;37695;52.960;6.188;2023-04-25T07:48:40;7.50;99.90
51615;DHT22;37695;52.960;6.188;2023-04-25T07:51:06;7.30;99.90
51615;DHT22;37695;52.960;6.188;2023-04-25T07:53:32;7.20;99.90
51615;DHT22;37695;52.960;6.188;2023-04-25T07:56:00;7.20;99.90
51615;DHT22;37695;52.960;6.188;2023-04-25T07:58:25;7.40;99.90
51615;DHT22;37695;52.960;6.188;2023-04-25T08:00:51;7.40;99.90
51615;DHT22;37695;52.960;6.188;2023-04-25T08:03:16;7.40;99.90
51615;DHT22;37695;52.960;6.188;2023-04-25T08:05:42;7.40;99.90
51615;DHT22;37695;52.960;6.188;2023-04-25T08:08:08;7.40;99.90
51615;DHT22;37695;52.960;6.188;2023-04-25T08:10:33;7.40;99.90
51615;DHT22;37695;52.960;6.188;2023-04-25T08:12:59;7.40;99.90
51615;DHT22;37695;52.960;6.188;2023-04-25T08:15:25;7.60;99.90
51615;DHT22;37695;52.960;6.188;2023-04-25T08:17:51;7.60;99.90
51615;DHT22;37695;52.960;6.188;2023-04-25T08:20:17;7.70;99.90
51615;DHT22;37695;52.960;6.188;2023-04-25T08:22:43;7.90;99.90
51615;DHT22;37695;52.960;6.188;2023-04-25T08:25:08;8.00;99.90
51615;DHT22;37695;52.960;6.188;2023-04-25T08:27:34;8.10;99.90
51615;DHT22;37695;52.960;6.188;2023-04-25T08:30:00;8.30;99.90
51615;DHT22;37695;52.960;6.188;2023-04-25T08:32:27;8.40;99.90
51615;DHT22;37695;52.960;6.188;2023-04-25T08:34:52;8.50;99.90
51615;DHT22;37695;52.960;6.188;2023-04-25T08:37:19;8.80;99.90
51615;DHT22;37695;52.960;6.188;2023-04-25T08:39:45;9.10;99.90
51615;DHT22;37695;52.960;6.188;2023-04-25T08:42:14;9.10;99.90
51615;DHT22;37695;52.960;6.188;2023-04-25T08:44:40;9.20;99.90
51615;DHT22;37695;52.960;6.188;2023-04-25T08:47:06;9.10;99.90
51615;DHT22;37695;52.960;6.188;2023-04-25T08:49:32;8.70;99.90
51615;DHT22;37695;52.960;6.188;2023-04-25T08:52:04;8.30;99.90
51615;DHT22;37695;52.960;6.188;2023-04-25T08:54:32;8.20;99.90
51615;DHT22;37695;52.960;6.188;2023-04-25T08:57:01;8.30;99.90
51615;DHT22;37695;52.960;6.188;2023-04-25T08:59:28;8.50;99.90
51615;DHT22;37695;52.960;6.188;2023-04-25T09:01:54;8.70;99.90
51615;DHT22;37695;52.960;6.188;2023-04-25T09:04:20;8.90;99.90
51615;DHT22;37695;52.960;6.188;2023-04-25T09:06:47;9.10;99.90
51615;DHT22;37695;52.960;6.188;2023-04-25T09:09:12;9.50;99.90
51615;DHT22;37695;52.960;6.188;2023-04-25T09:11:39;9.70;99.90
51615;DHT22;37695;52.960;6.188;2023-04-25T09:14:16;9.80;99.90
51615;DHT22;37695;52.960;6.188;2023-04-25T09:19:30;9.70;99.90
51615;DHT22;37695;52.960;6.188;2023-04-25T09:21:57;9.70;99.90
51615;DHT22;37695;52.960;6.188;2023-04-25T09:24:37;9.70;99.90
51615;DHT22;37695;52.960;6.188;2023-04-25T09:27:04;9.70;99.90
51615;DHT22;37695;52.960;6.188;2023-04-25T09:29:37;9.80;99.90
51615;DHT22;37695;52.960;6.188;2023-04-25T09:34:42;9.30;99.90
51615;DHT22;37695;52.960;6.188;2023-04-25T09:37:09;8.60;99.90
51615;DHT22;37695;52.960;6.188;2023-04-25T09:39:37;8.10;99.90
51615;DHT22;37695;52.960;6.188;2023-04-25T09:42:03;7.80;99.90
51615;DHT22;37695;52.960;6.188;2023-04-25T09:44:29;7.90;99.90
51615;DHT22;37695;52.960;6.188;2023-04-25T09:46:55;8.20;99.90
51615;DHT22;37695;52.960;6.188;2023-04-25T09:49:20;8.60;99.90
51615;DHT22;37695;52.960;6.188;2023-04-25T09:51:56;8.90;99.90
51615;DHT22;37695;52.960;6.188;2023-04-25T09:54:25;9.30;99.90
51615;DHT22;37695;52.960;6.188;2023-04-25T09:56:52;9.50;99.90
51615;DHT22;37695;52.960;6.188;2023-04-25T09:59:21;9.80;99.90
51615;DHT22;37695;52.960;6.188;2023-04-25T10:01:50;10.20;99.90
51615;DHT22;37695;52.960;6.188;2023-04-25T10:04:21;10.00;99.90
51615;DHT22;37695;52.960;6.188;2023-04-25T10:06:49;9.50;99.90
51615;DHT22;37695;52.960;6.188;2023-04-25T10:09:15;9.10;99.90
51615;DHT22;37695;52.960;6.188;2023-04-25T10:11:44;8.90;99.90
51615;DHT22;37695;52.960;6.188;2023-04-25T10:14:10;8.80;99.90
51615;DHT22;37695;52.960;6.188;2023-04-25T10:16:38;8.90;99.90
51615;DHT22;37695;52.960;6.188;2023-04-25T10:19:04;8.90;99.90
51615;DHT22;37695;52.960;6.188;2023-04-25T10:21:31;8.80;99.90
51615;DHT22;37695;52.960;6.188;2023-04-25T10:23:58;8.80;99.90
51615;DHT22;37695;52.960;6.188;2023-04-25T10:26:24;8.80;99.90
51615;DHT22;37695;52.960;6.188;2023-04-25T10:28:58;9.00;99.90
51615;DHT22;37695;52.960;6.188;2023-04-25T10:31:24;9.30;99.90
51615;DHT22;37695;52.960;6.188;2023-04-25T10:33:50;9.50;99.90
51615;DHT22;37695;52.960;6.188;2023-04-25T10:36:21;9.80;99.90
51615;DHT22;37695;52.960;6.188;2023-04-25T10:38:49;10.00;99.90
51615;DHT22;37695;52.960;6.188;2023-04-25T10:41:18;10.00;99.90
51615;DHT22;37695;52.960;6.188;2023-04-25T10:43:46;10.00;99.90
51615;DHT22;37695;52.960;6.188;2023-04-25T10:48:49;10.20;99.90
51615;DHT22;37695;52.960;6.188;2023-04-25T10:54:00;10.70;99.90
51615;DHT22;37695;52.960;6.188;2023-04-25T10:59:05;10.70;99.90
51615;DHT22;37695;52.960;6.188;2023-04-25T11:01:39;11.00;99.90
51615;DHT22;37695;52.960;6.188;2023-04-25T11:04:05;11.60;99.90
51615;DHT22;37695;52.960;6.188;2023-04-25T11:06:55;11.70;99.90
51615;DHT22;37695;52.960;6.188;2023-04-25T11:09:24;11.50;99.90
51615;DHT22;37695;52.960;6.188;2023-04-25T11:11:59;11.30;99.90
51615;DHT22;37695;52.960;6.188;2023-04-25T11:14:25;11.40;99.90
51615;DHT22;37695;52.960;6.188;2023-04-25T11:16:58;11.80;99.90
51615;DHT22;37695;52.960;6.188;2023-04-25T11:19:25;11.70;99.90
51615;DHT22;37695;52.960;6.188;2023-04-25T11:21:54;11.40;99.90
51615;DHT22;37695;52.960;6.188;2023-04-25T11:24:21;11.50;99.90
51615;DHT22;37695;52.960;6.188;2023-04-25T11:26:50;11.50;99.90
51615;DHT22;37695;52.960;6.188;2023-04-25T11:29:16;11.00;99.90
51615;DHT22;37695;52.960;6.188;2023-04-25T11:31:44;10.70;99.90
51615;DHT22;37695;52.960;6.188;2023-04-25T11:34:11;10.40;99.90
51615;DHT22;37695;52.960;6.188;2023-04-25T11:36:38;10.00;99.90
51615;DHT22;37695;52.960;6.188;2023-04-25T11:39:03;9.60;99.90
51615;DHT22;37695;52.960;6.188;2023-04-25T11:41:30;9.50;99.90
51615;DHT22;37695;52.960;6.188;2023-04-25T11:43:56;9.30;99.90
51615;DHT22;37695;52.960;6.188;2023-04-25T11:46:21;9.20;99.90
51615;DHT22;37695;52.960;6.188;2023-04-25T11:48:47;9.10;99.90
51615;DHT22;37695;52.960;6.188;2023-04-25T11:51:13;9.10;99.90
51615;DHT22;37695;52.960;6.188;2023-04-25T11:53:41;9.40;99.90
51615;DHT22;37695;52.960;6.188;2023-04-25T11:56:11;9.70;99.90
51615;DHT22;37695;52.960;6.188;2023-04-25T11:59:02;9.90;99.90
51615;DHT22;37695;52.960;6.188;2023-04-25T12:01:30;10.40;99.90
51615;DHT22;37695;52.960;6.188;2023-04-25T12:03:56;10.70;99.90
51615;DHT22;37695;52.960;6.188;2023-04-25T12:06:27;11.00;99.90
51615;DHT22;37695;52.960;6.188;2023-04-25T12:09:01;11.40;99.90
51615;DHT22;37695;52.960;6.188;2023-04-25T12:11:26;11.50;99.90
51615;DHT22;37695;52.960;6.188;2023-04-25T12:13:52;11.40;99.90
51615;DHT22;37695;52.960;6.188;2023-04-25T12:16:19;11.40;99.90
51615;DHT22;37695;52.960;6.188;2023-04-25T12:18:44;11.10;99.90
51615;DHT22;37695;52.960;6.188;2023-04-25T12:21:10;11.00;99.90
51615;DHT22;37695;52.960;6.188;2023-04-25T12:23:38;11.10;99.90
51615;DHT22;37695;52.960;6.188;2023-04-25T12:26:04;10.90;99.90
51615;DHT22;37695;52.960;6.188;2023-04-25T12:28:32;10.50;99.90
51615;DHT22;37695;52.960;6.188;2023-04-25T12:31:06;10.00;99.90
51615;DHT22;37695;52.960;6.188;2023-04-25T12:33:32;9.70;99.90
51615;DHT22;37695;52.960;6.188;2023-04-25T12:35:59;9.40;99.90
51615;DHT22;37695;52.960;6.188;2023-04-25T12:38:29;9.30;99.90
51615;DHT22;37695;52.960;6.188;2023-04-25T12:40:56;9.30;99.90
51615;DHT22;37695;52.960;6.188;2023-04-25T12:43:22;9.50;99.90
51615;DHT22;37695;52.960;6.188;2023-04-25T12:45:52;9.50;99.90
51615;DHT22;37695;52.960;6.188;2023-04-25T12:48:18;9.60;99.90
51615;DHT22;37695;52.960;6.188;2023-04-25T12:50:44;10.00;99.90
51615;DHT22;37695;52.960;6.188;2023-04-25T12:53:10;10.40;99.90
51615;DHT22;37695;52.960;6.188;2023-04-25T12:55:37;10.60;99.90
51615;DHT22;37695;52.960;6.188;2023-04-25T12:58:02;11.00;99.90
51615;DHT22;37695;52.960;6.188;2023-04-25T13:00:29;11.00;99.90
51615;DHT22;37695;52.960;6.188;2023-04-25T13:02:54;10.60;99.90
51615;DHT22;37695;52.960;6.188;2023-04-25T13:05:21;10.10;99.90
51615;DHT22;37695;52.960;6.188;2023-04-25T13:07:46;9.80;99.90
51615;DHT22;37695;52.960;6.188;2023-04-25T13:10:12;9.60;99.90
51615;DHT22;37695;52.960;6.188;2023-04-25T13:12:37;9.70;99.90
51615;DHT22;37695;52.960;6.188;2023-04-25T13:15:03;10.00;99.90
51615;DHT22;37695;52.960;6.188;2023-04-25T13:17:29;10.30;99.90
51615;DHT22;37695;52.960;6.188;2023-04-25T13:19:55;10.60;99.90
51615;DHT22;37695;52.960;6.188;2023-04-25T13:22:21;10.40;99.90
51615;DHT22;37695;52.960;6.188;2023-04-25T13:24:46;10.60;99.90
51615;DHT22;37695;52.960;6.188;2023-04-25T13:27:12;10.80;99.90
51615;DHT22;37695;52.960;6.188;2023-04-25T13:29:38;11.20;99.90
51615;DHT22;37695;52.960;6.188;2023-04-25T13:32:06;11.20;99.90
51615;DHT22;37695;52.960;6.188;2023-04-25T13:34:32;10.30;99.90
51615;DHT22;37695;52.960;6.188;2023-04-25T13:36:57;10.80;99.90
51615;DHT22;37695;52.960;6.188;2023-04-25T13:39:23;10.70;99.90
51615;DHT22;37695;52.960;6.188;2023-04-25T13:41:48;10.60;99.90
51615;DHT22;37695;52.960;6.188;2023-04-25T13:44:14;10.50;99.90
51615;DHT22;37695;52.960;6.188;2023-04-25T13:46:39;10.30;99.90
51615;DHT22;37695;52.960;6.188;2023-04-25T13:49:05;10.20;99.90
51615;DHT22;37695;52.960;6.188;2023-04-25T13:51:31;10.30;99.90
51615;DHT22;37695;52.960;6.188;2023-04-25T13:53:57;10.50;99.90
51615;DHT22;37695;52.960;6.188;2023-04-25T13:56:22;10.70;99.90
51615;DHT22;37695;52.960;6.188;2023-04-25T13:58:52;10.60;99.90
51615;DHT22;37695;52.960;6.188;2023-04-25T14:01:18;10.50;99.90
51615;DHT22;37695;52.960;6.188;2023-04-25T14:03:44;10.30;99.90
51615;DHT22;37695;52.960;6.188;2023-04-25T14:06:10;10.10;99.90
51615;DHT22;37695;52.960;6.188;2023-04-25T14:08:38;10.20;99.90
51615;DHT22;37695;52.960;6.188;2023-04-25T14:11:03;10.30;99.90
51615;DHT22;37695;52.960;6.188;2023-04-25T14:13:29;10.30;99.90
51615;DHT22;37695;52.960;6.188;2023-04-25T14:15:54;10.20;99.90
51615;DHT22;37695;52.960;6.188;2023-04-25T14:18:20;10.10;99.90
51615;DHT22;37695;52.960;6.188;2023-04-25T14:20:46;10.10;99.90
51615;DHT22;37695;52.960;6.188;2023-04-25T14:23:11;10.30;99.90
51615;DHT22;37695;52.960;6.188;2023-04-25T14:25:37;10.20;99.90
51615;DHT22;37695;52.960;6.188;2023-04-25T14:28:03;10.20;99.90
51615;DHT22;37695;52.960;6.188;2023-04-25T14:30:29;10.40;99.90
51615;DHT22;37695;52.960;6.188;2023-04-25T14:32:54;10.60;99.40
51615;DHT22;37695;52.960;6.188;2023-04-25T14:35:20;10.70;99.90
51615;DHT22;37695;52.960;6.188;2023-04-25T14:37:46;10.80;99.90
51615;DHT22;37695;52.960;6.188;2023-04-25T14:40:13;11.10;99.90
51615;DHT22;37695;52.960;6.188;2023-04-25T14:42:40;11.10;99.90
51615;DHT22;37695;52.960;6.188;2023-04-25T14:45:07;11.10;99.90
51615;DHT22;37695;52.960;6.188;2023-04-25T14:47:33;11.00;99.90
51615;DHT22;37695;52.960;6.188;2023-04-25T14:49:58;10.60;99.90
51615;DHT22;37695;52.960;6.188;2023-04-25T14:52:24;10.30;99.90
51615;DHT22;37695;52.960;6.188;2023-04-25T14:54:51;10.00;99.90
51615;DHT22;37695;52.960;6.188;2023-04-25T14:57:16;9.70;99.90
51615;DHT22;37695;52.960;6.188;2023-04-25T14:59:42;9.50;99.90
51615;DHT22;37695;52.960;6.188;2023-04-25T15:02:07;9.30;99.90
51615;DHT22;37695;52.960;6.188;2023-04-25T15:04:33;9.10;99.90
51615;DHT22;37695;52.960;6.188;2023-04-25T15:06:58;9.00;99.90
51615;DHT22;37695;52.960;6.188;2023-04-25T15:09:24;9.00;99.90
51615;DHT22;37695;52.960;6.188;2023-04-25T15:11:50;9.00;99.90
51615;DHT22;37695;52.960;6.188;2023-04-25T15:14:17;9.00;99.90
51615;DHT22;37695;52.960;6.188;2023-04-25T15:16:43;9.30;99.90
51615;DHT22;37695;52.960;6.188;2023-04-25T15:19:08;9.50;99.90
51615;DHT22;37695;52.960;6.188;2023-04-25T15:21:34;9.70;99.90
51615;DHT22;37695;52.960;6.188;2023-04-25T15:24:00;9.80;99.90
51615;DHT22;37695;52.960;6.188;2023-04-25T15:26:27;9.80;99.90
51615;DHT22;37695;52.960;6.188;2023-04-25T15:28:53;9.70;99.90
51615;DHT22;37695;52.960;6.188;2023-04-25T15:31:19;9.50;99.90
51615;DHT22;37695;52.960;6.188;2023-04-25T15:33:45;9.40;99.90
51615;DHT22;37695;52.960;6.188;2023-04-25T15:36:10;9.40;99.90
51615;DHT22;37695;52.960;6.188;2023-04-25T15:38:36;9.50;99.90
51615;DHT22;37695;52.960;6.188;2023-04-25T15:41:02;9.50;99.90
51615;DHT22;37695;52.960;6.188;2023-04-25T15:43:28;9.60;99.90
51615;DHT22;37695;52.960;6.188;2023-04-25T15:45:54;9.60;99.90
51615;DHT22;37695;52.960;6.188;2023-04-25T15:48:20;9.70;99.90
51615;DHT22;37695;52.960;6.188;2023-04-25T15:50:46;9.80;99.90